createdAt,value
2023-03-02T00:01:08.443Z,34.15
2023-03-02T00:03:40.473Z,33.38
2023-03-02T00:06:08.245Z,34.30
2023-03-02T00:08:36.265Z,33.53
2023-03-02T00:11:02.962Z,32.10
2023-03-02T00:13:30.536Z,33.67
2023-03-02T00:15:57.119Z,39.97
2023-03-02T00:18:23.781Z,34.97
2023-03-02T00:20:50.326Z,35.97
2023-03-02T00:23:16.955Z,35.03
2023-03-02T00:25:43.576Z,34.90
2023-03-02T00:28:10.198Z,33.47
2023-03-02T00:30:38.683Z,33.67
2023-03-02T00:33:05.292Z,33.28
2023-03-02T00:35:36.266Z,34.50
2023-03-02T00:38:02.857Z,34.50
2023-03-02T00:40:29.426Z,33.67
2023-03-02T00:42:55.954Z,33.25
2023-03-02T00:45:22.515Z,37.50
2023-03-02T00:47:49.059Z,33.97
2023-03-02T00:50:15.598Z,34.08
2023-03-02T00:52:42.191Z,34.97
2023-03-02T00:55:09.293Z,35.50
2023-03-02T00:57:35.934Z,33.20
2023-03-02T01:00:02.515Z,34.85
2023-03-02T01:02:29.285Z,34.78
2023-03-02T01:04:55.990Z,32.40
2023-03-02T01:07:24.825Z,32.80
2023-03-02T01:09:51.739Z,34.38
2023-03-02T01:12:19.006Z,33.00
2023-03-02T01:14:47.742Z,35.47
2023-03-02T01:17:15.002Z,31.85
2023-03-02T01:19:41.984Z,33.22
2023-03-02T01:22:08.666Z,32.95
2023-03-02T01:24:35.410Z,33.28
2023-03-02T01:27:02.296Z,34.20
2023-03-02T01:29:29.061Z,31.63
2023-03-02T01:31:55.877Z,32.53
2023-03-02T01:34:22.571Z,32.67
2023-03-02T01:36:49.147Z,32.20
2023-03-02T01:39:15.973Z,31.60
2023-03-02T01:41:44.490Z,32.53
2023-03-02T01:44:35.986Z,31.55
2023-03-02T01:47:24.623Z,33.53
2023-03-02T01:49:56.533Z,30.85
2023-03-02T01:52:23.955Z,33.28
2023-03-02T01:54:52.831Z,32.17
2023-03-02T01:57:27.145Z,32.05
2023-03-02T01:59:59.539Z,31.77
2023-03-02T02:02:26.663Z,32.65
2023-03-02T02:04:55.978Z,33.45
2023-03-02T02:07:22.645Z,33.45
2023-03-02T02:09:52.156Z,34.20
2023-03-02T02:12:21.759Z,32.90
2023-03-02T02:14:49.729Z,33.20
2023-03-02T02:17:18.390Z,31.63
2023-03-02T02:20:07.074Z,31.60
2023-03-02T02:22:55.661Z,33.40
2023-03-02T02:25:39.734Z,32.70
2023-03-02T02:28:15.990Z,33.55
2023-03-02T02:30:43.474Z,33.92
2023-03-02T02:33:16.612Z,35.28
2023-03-02T02:35:47.105Z,34.30
2023-03-02T02:38:18.171Z,34.15
2023-03-02T02:40:56.455Z,34.42
2023-03-02T02:43:23.533Z,33.88
2023-03-02T02:45:55.483Z,34.72
2023-03-02T02:48:25.239Z,33.30
2023-03-02T02:51:00.184Z,34.10
2023-03-02T02:53:50.067Z,36.03
2023-03-02T02:56:18.448Z,35.47
2023-03-02T02:58:52.771Z,35.00
2023-03-02T03:01:25.851Z,34.33
2023-03-02T03:04:00.410Z,34.22
2023-03-02T03:06:38.139Z,35.33
2023-03-02T03:09:06.188Z,35.25
2023-03-02T03:11:36.260Z,36.03
2023-03-02T03:14:36.276Z,36.70
2023-03-02T03:17:02.909Z,36.95
2023-03-02T03:19:32.130Z,35.95
2023-03-02T03:22:01.194Z,35.85
2023-03-02T03:24:30.169Z,39.83
2023-03-02T03:26:57.791Z,36.80
2023-03-02T03:29:26.725Z,37.05
2023-03-02T03:31:55.838Z,36.85
2023-03-02T03:34:22.710Z,36.70
2023-03-02T03:36:49.239Z,39.85
2023-03-02T03:39:16.931Z,36.05
2023-03-02T03:41:44.244Z,36.65
2023-03-02T03:44:11.464Z,38.13
2023-03-02T03:46:38.589Z,37.22
2023-03-02T03:49:05.519Z,36.08
2023-03-02T03:51:35.052Z,39.60
2023-03-02T03:54:03.934Z,39.53
2023-03-02T03:56:34.043Z,37.83
2023-03-02T03:59:11.228Z,38.58
2023-03-02T04:01:54.441Z,38.53
2023-03-02T04:04:27.853Z,38.53
2023-03-02T04:06:54.793Z,38.70
2023-03-02T04:09:22.632Z,37.10
2023-03-02T04:11:51.176Z,36.60
2023-03-02T04:14:18.797Z,38.15
2023-03-02T04:16:45.538Z,37.15
2023-03-02T04:19:12.848Z,39.78
2023-03-02T04:21:48.091Z,37.90
2023-03-02T04:24:15.572Z,39.00
2023-03-02T04:26:43.588Z,38.67
2023-03-02T04:29:11.224Z,39.65
2023-03-02T04:31:38.747Z,38.45
2023-03-02T04:34:05.896Z,38.67
2023-03-02T04:36:34.791Z,39.53
2023-03-02T04:39:01.601Z,41.25
2023-03-02T04:41:28.160Z,39.60
2023-03-02T04:43:54.800Z,38.65
2023-03-02T04:46:24.444Z,39.47
2023-03-02T04:48:51.591Z,38.10
2023-03-02T04:51:28.126Z,38.78
2023-03-02T04:53:58.269Z,36.95
2023-03-02T04:56:24.858Z,38.97
2023-03-02T04:58:51.459Z,37.22
2023-03-02T05:01:19.669Z,39.70
2023-03-02T05:03:47.058Z,37.28
2023-03-02T05:06:14.282Z,38.78
2023-03-02T05:08:41.093Z,38.97
2023-03-02T05:11:08.458Z,38.42
2023-03-02T05:13:35.848Z,38.00
2023-03-02T05:16:02.951Z,39.72
2023-03-02T05:18:29.848Z,40.03
2023-03-02T05:20:57.057Z,39.85
2023-03-02T05:23:25.763Z,39.45
2023-03-02T05:25:54.739Z,38.30
2023-03-02T05:28:23.206Z,39.22
2023-03-02T05:30:50.187Z,41.63
2023-03-02T05:33:17.977Z,38.20
2023-03-02T05:35:44.789Z,39.45
2023-03-02T05:38:11.837Z,40.13
2023-03-02T05:40:39.650Z,39.22
2023-03-02T05:43:06.866Z,40.47
2023-03-02T05:45:36.580Z,39.25
2023-03-02T05:48:04.279Z,40.10
2023-03-02T05:50:31.233Z,40.95
2023-03-02T05:52:59.975Z,40.28
2023-03-02T05:55:26.688Z,40.00
2023-03-02T05:57:53.492Z,40.50
2023-03-02T06:00:20.612Z,40.38
2023-03-02T06:02:47.795Z,40.85
2023-03-02T06:05:17.185Z,39.88
2023-03-02T06:07:44.220Z,40.28
2023-03-02T06:10:12.218Z,39.60
2023-03-02T06:12:39.595Z,41.45
2023-03-02T06:15:07.755Z,41.20
2023-03-02T06:17:35.030Z,41.20
2023-03-02T06:20:01.854Z,42.25
2023-03-02T06:22:28.391Z,41.63
2023-03-02T06:24:57.939Z,43.10
2023-03-02T06:27:24.502Z,42.90
2023-03-02T06:29:51.171Z,41.38
2023-03-02T06:32:17.936Z,40.38
2023-03-02T06:34:44.614Z,41.58
2023-03-02T06:37:11.217Z,43.00
2023-03-02T06:39:37.815Z,40.17
2023-03-02T06:42:04.428Z,41.25
2023-03-02T06:44:31.130Z,40.47
2023-03-02T06:46:57.642Z,39.00
2023-03-02T06:49:24.761Z,41.15
2023-03-02T06:51:51.281Z,41.22
2023-03-02T06:54:17.918Z,40.20
2023-03-02T06:56:44.468Z,40.58
2023-03-02T06:59:11.076Z,41.33
2023-03-02T07:01:37.703Z,43.30
2023-03-02T07:04:04.415Z,39.70
2023-03-02T07:06:30.929Z,41.35
2023-03-02T07:08:57.532Z,38.70
2023-03-02T07:11:24.026Z,40.78
2023-03-02T07:13:51.291Z,42.60
2023-03-02T07:16:18.030Z,39.60
2023-03-02T07:18:44.682Z,40.45
2023-03-02T07:21:11.250Z,40.13
2023-03-02T07:23:37.829Z,40.97
2023-03-02T07:26:08.221Z,40.05
2023-03-02T07:28:40.022Z,37.78
2023-03-02T07:31:06.983Z,41.58
2023-03-02T07:33:33.854Z,39.28
2023-03-02T07:36:00.763Z,38.33
2023-03-02T07:38:27.540Z,40.20
2023-03-02T07:40:54.184Z,41.03
2023-03-02T07:43:21.226Z,40.40
2023-03-02T07:45:47.764Z,39.80
2023-03-02T07:48:14.310Z,39.38
2023-03-02T07:50:40.921Z,40.72
2023-03-02T07:53:07.476Z,42.70
2023-03-02T07:55:34.372Z,39.55
2023-03-02T07:58:00.922Z,40.38
2023-03-02T08:00:27.560Z,41.60
2023-03-02T08:02:54.267Z,40.30
2023-03-02T08:05:20.895Z,40.42
2023-03-02T08:07:48.282Z,39.83
2023-03-02T08:10:14.990Z,40.83
2023-03-02T08:12:42.864Z,38.92
2023-03-02T08:15:10.226Z,38.75
2023-03-02T08:17:36.799Z,42.00
2023-03-02T08:20:04.497Z,37.45
2023-03-02T08:22:31.035Z,41.92
2023-03-02T08:24:57.664Z,39.45
2023-03-02T08:27:24.229Z,38.53
2023-03-02T08:29:50.767Z,43.72
2023-03-02T08:32:17.367Z,39.70
2023-03-02T08:34:44.084Z,40.05
2023-03-02T08:37:10.674Z,39.25
2023-03-02T08:39:37.243Z,40.20
2023-03-02T08:42:03.839Z,39.88
2023-03-02T08:44:30.403Z,41.22
2023-03-02T08:46:56.912Z,42.10
2023-03-02T08:49:23.507Z,41.80
2023-03-02T08:51:53.377Z,38.97
2023-03-02T08:54:20.905Z,39.92
2023-03-02T08:56:48.699Z,40.55
2023-03-02T08:59:15.300Z,41.47
2023-03-02T09:01:42.627Z,40.47
2023-03-02T09:04:10.452Z,40.00
2023-03-02T09:06:40.382Z,41.70
2023-03-02T09:09:08.958Z,42.83
2023-03-02T09:11:35.846Z,44.17
2023-03-02T09:14:02.942Z,41.85
2023-03-02T09:16:29.790Z,40.83
2023-03-02T09:18:56.479Z,41.00
2023-03-02T09:21:23.832Z,40.40
2023-03-02T09:23:55.488Z,37.92
2023-03-02T09:26:22.253Z,40.58
2023-03-02T09:28:48.883Z,41.80
2023-03-02T09:31:15.424Z,41.20
2023-03-02T09:33:42.273Z,42.83
2023-03-02T09:36:19.501Z,40.53
2023-03-02T09:38:46.230Z,40.58
2023-03-02T09:41:20.508Z,43.53
2023-03-02T09:44:02.125Z,41.72
2023-03-02T09:46:51.569Z,42.67
2023-03-02T09:49:29.556Z,42.45
2023-03-02T09:52:21.747Z,40.15
2023-03-02T09:54:48.351Z,41.08
2023-03-02T09:57:28.387Z,42.53
2023-03-02T10:00:16.487Z,41.22
2023-03-02T10:02:52.907Z,43.15
2023-03-02T10:05:33.486Z,41.70
2023-03-02T10:08:00.690Z,41.38
2023-03-02T10:10:39.831Z,42.70
2023-03-02T10:13:09.311Z,42.45
2023-03-02T10:15:47.135Z,45.35
2023-03-02T10:18:33.644Z,42.20
2023-03-02T10:21:06.768Z,41.38
2023-03-02T10:24:08.338Z,42.53
2023-03-02T10:26:52.824Z,41.00
2023-03-02T10:29:41.019Z,44.35
2023-03-02T10:32:20.141Z,42.97
2023-03-02T10:34:48.194Z,41.75
2023-03-02T10:37:24.995Z,43.22
2023-03-02T10:39:52.564Z,41.03
2023-03-02T10:42:26.879Z,41.17
2023-03-02T10:44:57.475Z,42.65
2023-03-02T10:47:28.787Z,42.72
2023-03-02T10:49:57.323Z,42.28
2023-03-02T10:52:26.480Z,41.70
2023-03-02T10:55:04.694Z,43.47
2023-03-02T10:57:58.496Z,42.28
2023-03-02T11:00:28.850Z,43.47
2023-03-02T11:03:19.460Z,41.10
2023-03-02T11:05:46.051Z,41.92
2023-03-02T11:08:25.128Z,42.20
2023-03-02T11:11:00.908Z,41.78
2023-03-02T11:13:37.058Z,45.55
2023-03-02T11:16:26.885Z,39.50
2023-03-02T11:19:01.573Z,42.63
2023-03-02T11:21:51.592Z,42.90
2023-03-02T11:24:29.352Z,43.13
2023-03-02T11:27:22.637Z,41.67
2023-03-02T11:30:16.640Z,43.47
2023-03-02T11:32:58.226Z,44.13
2023-03-02T11:35:34.075Z,40.67
2023-03-02T11:38:23.224Z,43.10
2023-03-02T11:40:56.434Z,42.72
2023-03-02T11:43:23.133Z,43.78
2023-03-02T11:45:58.383Z,40.78
2023-03-02T11:48:28.735Z,41.25
2023-03-02T11:51:18.152Z,43.08
2023-03-02T11:53:53.723Z,42.33
2023-03-02T11:56:20.530Z,43.75
2023-03-02T11:58:54.564Z,41.70
2023-03-02T12:01:24.915Z,42.72
2023-03-02T12:03:52.356Z,42.70
2023-03-02T12:06:21.891Z,42.53
2023-03-02T12:08:54.877Z,41.75
2023-03-02T12:11:21.463Z,42.60
2023-03-02T12:14:03.091Z,40.30
2023-03-02T12:16:37.760Z,42.70
2023-03-02T12:19:13.394Z,41.67
2023-03-02T12:21:43.100Z,43.20
2023-03-02T12:24:25.404Z,43.67
2023-03-02T12:27:14.875Z,40.65
2023-03-02T12:29:47.831Z,41.85
2023-03-02T12:32:34.717Z,42.85
2023-03-02T12:35:12.847Z,41.10
2023-03-02T12:38:05.251Z,39.45
2023-03-02T12:41:03.994Z,41.50
2023-03-02T12:43:38.018Z,42.25
2023-03-02T12:46:32.539Z,41.70
2023-03-02T12:49:40.459Z,41.05
2023-03-02T12:52:23.479Z,40.97
2023-03-02T12:55:00.826Z,45.47
2023-03-02T12:57:27.467Z,44.22
2023-03-02T13:00:00.049Z,41.65
2023-03-02T13:02:35.415Z,42.45
2023-03-02T13:05:07.932Z,43.55
2023-03-02T13:07:37.848Z,43.42
2023-03-02T13:10:20.136Z,42.83
2023-03-02T13:12:47.173Z,40.45
2023-03-02T13:15:16.987Z,39.90
2023-03-02T13:17:45.282Z,41.83
2023-03-02T13:20:14.549Z,43.05
2023-03-02T13:22:41.305Z,42.53
2023-03-02T13:25:23.010Z,41.55
2023-03-02T13:28:07.723Z,39.80
2023-03-02T13:30:37.290Z,40.15
2023-03-02T13:33:24.487Z,39.42
2023-03-02T13:35:51.356Z,41.03
2023-03-02T13:38:20.817Z,40.83
2023-03-02T13:40:52.102Z,41.22
2023-03-02T13:43:36.127Z,41.17
2023-03-02T13:46:07.650Z,43.78
2023-03-02T13:48:34.272Z,42.08
2023-03-02T13:51:04.218Z,39.60
2023-03-02T13:53:34.571Z,41.85
2023-03-02T13:56:01.317Z,41.90
2023-03-02T13:58:29.606Z,42.28
2023-03-02T14:00:56.434Z,40.30
2023-03-02T14:03:24.811Z,43.63
2023-03-02T14:05:52.465Z,41.45
2023-03-02T14:08:19.109Z,42.40
2023-03-02T14:10:46.680Z,42.92
2023-03-02T14:13:17.391Z,42.17
2023-03-02T14:15:49.056Z,44.70
2023-03-02T14:18:28.210Z,43.85
2023-03-02T14:20:55.249Z,42.70
2023-03-02T14:23:22.147Z,44.40
2023-03-02T14:25:50.944Z,44.15
2023-03-02T14:28:32.834Z,45.40
2023-03-02T14:30:59.740Z,44.13
2023-03-02T14:33:26.601Z,46.15
2023-03-02T14:35:56.355Z,47.00
2023-03-02T14:38:24.886Z,45.47
2023-03-02T14:40:51.598Z,43.78
2023-03-02T14:43:18.558Z,44.47
2023-03-02T14:45:45.668Z,41.97
2023-03-02T14:48:12.436Z,43.90
2023-03-02T14:50:42.128Z,43.60
2023-03-02T14:53:31.212Z,43.53
2023-03-02T14:55:58.024Z,44.95
2023-03-02T14:58:34.094Z,41.83
2023-03-02T15:01:01.069Z,40.92
2023-03-02T15:03:29.162Z,44.03
2023-03-02T15:06:01.346Z,38.47
2023-03-02T15:08:29.037Z,41.05
2023-03-02T15:10:55.746Z,42.05
2023-03-02T15:13:22.318Z,41.17
2023-03-02T15:15:49.863Z,42.03
2023-03-02T15:18:19.417Z,40.08
2023-03-02T15:20:46.073Z,41.55
2023-03-02T15:23:12.639Z,39.47
2023-03-02T15:25:39.227Z,39.05
2023-03-02T15:28:05.799Z,36.80
2023-03-02T15:30:32.318Z,38.20
2023-03-02T15:32:59.465Z,35.33
2023-03-02T15:35:27.665Z,38.55
2023-03-02T15:37:55.531Z,35.97
2023-03-02T15:40:22.039Z,38.78
2023-03-02T15:42:48.901Z,38.75
2023-03-02T15:45:15.547Z,37.67
2023-03-02T15:47:42.166Z,40.42
2023-03-02T15:50:09.549Z,37.70
2023-03-02T15:52:36.076Z,36.53
2023-03-02T15:55:02.791Z,37.60
2023-03-02T15:57:29.298Z,39.60
2023-03-02T15:59:55.816Z,37.83
2023-03-02T16:02:22.365Z,39.10
2023-03-02T16:04:48.913Z,37.08
2023-03-02T16:07:15.446Z,37.63
2023-03-02T16:09:42.018Z,37.33
2023-03-02T16:12:08.534Z,37.25
2023-03-02T16:14:35.097Z,37.15
2023-03-02T16:17:01.701Z,38.42
2023-03-02T16:19:28.314Z,35.95
2023-03-02T16:21:54.867Z,35.38
2023-03-02T16:24:21.549Z,38.83
2023-03-02T16:26:48.751Z,36.97
2023-03-02T16:29:15.255Z,36.08
2023-03-02T16:31:42.339Z,36.65
2023-03-02T16:34:09.791Z,36.05
2023-03-02T16:36:38.476Z,35.22
2023-03-02T16:39:06.361Z,37.90
2023-03-02T16:41:33.584Z,36.60
2023-03-02T16:44:00.888Z,36.08
2023-03-02T16:46:30.727Z,35.60
2023-03-02T16:48:58.493Z,36.88
2023-03-02T16:51:25.572Z,39.75
2023-03-02T16:53:52.410Z,36.42
2023-03-02T16:56:19.216Z,36.22
2023-03-02T16:58:45.859Z,37.28
2023-03-02T17:01:16.166Z,38.00
2023-03-02T17:03:43.551Z,37.47
2023-03-02T17:06:12.133Z,37.83
2023-03-02T17:08:39.190Z,36.83
2023-03-02T17:11:06.576Z,42.88
2023-03-02T17:13:33.731Z,37.28
2023-03-02T17:16:00.524Z,36.03
2023-03-02T17:18:28.081Z,34.85
2023-03-02T17:20:57.456Z,36.63
2023-03-02T17:23:25.149Z,36.70
2023-03-02T17:25:51.698Z,35.45
2023-03-02T17:28:18.510Z,35.22
2023-03-02T17:30:45.545Z,36.63
2023-03-02T17:33:12.222Z,38.65
2023-03-02T17:35:38.863Z,36.65
2023-03-02T17:38:05.986Z,36.00
2023-03-02T17:40:33.383Z,35.92
2023-03-02T17:43:00.217Z,33.30
2023-03-02T17:45:28.013Z,32.88
2023-03-02T17:47:56.297Z,36.70
2023-03-02T17:50:24.050Z,36.78
2023-03-02T17:52:50.621Z,36.13
2023-03-02T17:55:18.442Z,35.70
2023-03-02T17:57:45.057Z,34.75
2023-03-02T18:00:15.412Z,36.42
2023-03-02T18:02:41.928Z,40.45
2023-03-02T18:05:09.999Z,36.60
2023-03-02T18:07:37.199Z,36.35
2023-03-02T18:10:05.328Z,36.50
2023-03-02T18:12:31.995Z,35.65
2023-03-02T18:14:58.525Z,36.05
2023-03-02T18:17:25.201Z,34.45
2023-03-02T18:19:51.847Z,35.35
2023-03-02T18:22:18.452Z,34.90
2023-03-02T18:24:45.080Z,34.95
2023-03-02T18:27:11.618Z,33.47
2023-03-02T18:29:38.144Z,35.70
2023-03-02T18:32:04.851Z,34.38
2023-03-02T18:34:31.515Z,34.50
2023-03-02T18:36:58.027Z,34.42
2023-03-02T18:39:24.623Z,35.38
2023-03-02T18:41:51.165Z,34.83
2023-03-02T18:44:18.619Z,35.70
2023-03-02T18:46:45.279Z,35.60
2023-03-02T18:49:11.902Z,34.28
2023-03-02T18:51:38.489Z,35.10
2023-03-02T18:54:05.161Z,35.90
2023-03-02T18:56:31.743Z,36.17
2023-03-02T18:58:58.347Z,34.53
2023-03-02T19:01:25.166Z,35.80
2023-03-02T19:03:53.120Z,35.50
2023-03-02T19:06:20.508Z,37.47
2023-03-02T19:08:48.117Z,42.03
2023-03-02T19:11:14.729Z,41.03
2023-03-02T19:13:41.424Z,37.58
2023-03-02T19:16:08.571Z,35.33
2023-03-02T19:18:35.212Z,35.15
2023-03-02T19:21:04.218Z,35.60
2023-03-02T19:23:32.365Z,35.53
2023-03-02T19:25:59.899Z,36.75
2023-03-02T19:28:27.413Z,36.40
2023-03-02T19:30:54.021Z,37.58
2023-03-02T19:33:20.620Z,36.90
2023-03-02T19:35:47.153Z,43.63
2023-03-02T19:38:14.058Z,52.85
2023-03-02T19:40:41.684Z,46.88
2023-03-02T19:43:08.590Z,45.00
2023-03-02T19:45:36.226Z,41.17
2023-03-02T19:48:03.844Z,37.92
2023-03-02T19:50:30.666Z,38.53
2023-03-02T19:52:57.953Z,38.80
2023-03-02T19:55:25.582Z,37.05
2023-03-02T19:57:59.423Z,38.88
2023-03-02T20:00:28.209Z,45.15
2023-03-02T20:02:55.173Z,47.13
2023-03-02T20:05:21.891Z,44.83
2023-03-02T20:07:48.563Z,37.05
2023-03-02T20:10:33.359Z,45.88
2023-03-02T20:13:00.569Z,39.83
2023-03-02T20:15:32.677Z,37.95
2023-03-02T20:18:02.163Z,37.55
2023-03-02T20:20:29.908Z,38.00
2023-03-02T20:22:56.533Z,38.33
2023-03-02T20:25:23.223Z,38.13
2023-03-02T20:27:51.696Z,36.95
2023-03-02T20:30:32.040Z,39.20
2023-03-02T20:32:59.511Z,37.70
2023-03-02T20:35:29.260Z,39.17
2023-03-02T20:37:56.496Z,36.63
2023-03-02T20:40:23.640Z,36.95
2023-03-02T20:42:50.710Z,38.75
2023-03-02T20:45:17.348Z,36.67
2023-03-02T20:47:44.102Z,36.50
2023-03-02T20:50:16.886Z,36.97
2023-03-02T20:52:43.865Z,37.53
2023-03-02T20:55:10.871Z,37.28
2023-03-02T20:57:37.430Z,36.67
2023-03-02T21:00:07.400Z,36.83
2023-03-02T21:02:33.988Z,37.10
2023-03-02T21:05:00.591Z,39.38
2023-03-02T21:07:27.345Z,38.28
2023-03-02T21:09:54.343Z,38.72
2023-03-02T21:12:20.988Z,36.08
2023-03-02T21:14:47.564Z,39.45
2023-03-02T21:17:14.308Z,38.28
2023-03-02T21:19:40.956Z,36.60
2023-03-02T21:22:07.539Z,39.63
2023-03-02T21:24:34.114Z,39.47
2023-03-02T21:27:01.275Z,39.17
2023-03-02T21:29:28.078Z,41.03
2023-03-02T21:31:54.840Z,38.30
2023-03-02T21:34:22.180Z,39.10
2023-03-02T21:36:53.276Z,40.08
2023-03-02T21:41:47.384Z,39.20
2023-03-02T21:44:14.124Z,40.42
2023-03-02T21:46:40.847Z,41.20
2023-03-02T21:49:07.753Z,38.78
2023-03-02T21:51:34.676Z,40.05
2023-03-02T21:54:01.290Z,42.58
2023-03-02T21:56:27.835Z,42.63
2023-03-02T21:58:56.465Z,45.40
2023-03-02T22:01:24.242Z,44.00
2023-03-02T22:03:50.891Z,45.50
2023-03-02T22:06:20.345Z,42.63
2023-03-02T22:08:47.167Z,44.38
2023-03-02T22:11:20.274Z,44.65
2023-03-02T22:13:49.303Z,42.95
2023-03-02T22:16:21.635Z,41.53
2023-03-02T22:18:54.596Z,41.63
2023-03-02T22:21:21.087Z,41.47
2023-03-02T22:23:47.615Z,42.58
2023-03-02T22:26:16.850Z,41.97
2023-03-02T22:28:44.422Z,42.85
2023-03-02T22:31:19.044Z,42.47
2023-03-02T22:33:45.765Z,42.42
2023-03-02T22:36:20.277Z,41.92
2023-03-02T22:38:46.793Z,41.60
2023-03-02T22:41:16.806Z,40.38
2023-03-02T22:43:44.204Z,41.15
2023-03-02T22:46:20.017Z,42.45
2023-03-02T22:48:49.409Z,40.67
2023-03-02T22:51:17.401Z,43.90
2023-03-02T22:53:57.092Z,39.63
2023-03-02T22:56:34.843Z,40.38
2023-03-02T22:59:15.086Z,42.45
2023-03-02T23:01:44.036Z,42.87
2023-03-02T23:04:26.927Z,39.03
2023-03-02T23:06:55.943Z,41.05
2023-03-02T23:09:28.996Z,41.40
2023-03-02T23:11:59.832Z,42.63
2023-03-02T23:14:38.847Z,42.22
2023-03-02T23:17:14.637Z,41.30
2023-03-02T23:19:41.295Z,40.25
2023-03-02T23:22:08.882Z,41.72
2023-03-02T23:24:36.524Z,41.35
2023-03-02T23:27:03.398Z,40.25
2023-03-02T23:29:30.179Z,41.25
2023-03-02T23:31:57.163Z,42.17
2023-03-02T23:34:24.266Z,41.63
2023-03-02T23:36:50.775Z,41.55
2023-03-02T23:39:17.611Z,41.58
2023-03-02T23:41:44.366Z,42.58
2023-03-02T23:44:11.050Z,43.80
2023-03-02T23:46:37.620Z,41.15
2023-03-02T23:49:04.219Z,43.63
2023-03-02T23:51:31.175Z,44.25
2023-03-02T23:53:57.791Z,42.00
2023-03-02T23:56:24.900Z,43.70
2023-03-02T23:58:51.556Z,41.90
